sensor_id;sensor_type;location;lat;lon;timestamp;temperature;humidity
37240;DHT22;23130;48.760;9.178;2022-07-19T00:00:43;20.20;82.50
37240;DHT22;23130;48.760;9.178;2022-07-19T00:03:13;20.20;83.00
37240;DHT22;23130;48.760;9.178;2022-07-19T00:05:38;20.10;82.70
37240;DHT22;23130;48.760;9.178;2022-07-19T00:08:04;20.10;82.50
37240;DHT22;23130;48.760;9.178;2022-07-19T00:10:30;20.10;82.60
37240;DHT22;23130;48.760;9.178;2022-07-19T00:12:56;20.00;82.60
37240;DHT22;23130;48.760;9.178;2022-07-19T00:15:22;20.10;83.10
37240;DHT22;23130;48.760;9.178;2022-07-19T00:17:48;20.00;83.30
37240;DHT22;23130;48.760;9.178;2022-07-19T00:20:16;20.00;83.70
37240;DHT22;23130;48.760;9.178;2022-07-19T00:22:42;19.90;83.80
37240;DHT22;23130;48.760;9.178;2022-07-19T00:25:08;19.80;84.60
37240;DHT22;23130;48.760;9.178;2022-07-19T00:27:35;19.80;84.90
37240;DHT22;23130;48.760;9.178;2022-07-19T00:30:00;19.90;84.40
37240;DHT22;23130;48.760;9.178;2022-07-19T00:32:26;19.90;84.50
37240;DHT22;23130;48.760;9.178;2022-07-19T00:34:51;20.00;84.70
37240;DHT22;23130;48.760;9.178;2022-07-19T00:37:17;19.90;84.90
37240;DHT22;23130;48.760;9.178;2022-07-19T00:39:43;19.80;85.60
37240;DHT22;23130;48.760;9.178;2022-07-19T00:42:08;19.70;86.70
37240;DHT22;23130;48.760;9.178;2022-07-19T00:44:34;19.50;87.30
37240;DHT22;23130;48.760;9.178;2022-07-19T00:47:00;19.50;88.00
37240;DHT22;23130;48.760;9.178;2022-07-19T00:49:25;19.50;87.40
37240;DHT22;23130;48.760;9.178;2022-07-19T00:51:51;19.40;87.90
37240;DHT22;23130;48.760;9.178;2022-07-19T00:54:19;19.40;88.40
37240;DHT22;23130;48.760;9.178;2022-07-19T00:56:48;19.30;89.00
37240;DHT22;23130;48.760;9.178;2022-07-19T00:59:14;19.30;89.20
37240;DHT22;23130;48.760;9.178;2022-07-19T01:01:40;19.20;89.80
37240;DHT22;23130;48.760;9.178;2022-07-19T01:04:07;19.10;90.00
37240;DHT22;23130;48.760;9.178;2022-07-19T01:06:33;19.10;90.20
37240;DHT22;23130;48.760;9.178;2022-07-19T01:08:58;19.00;90.40
37240;DHT22;23130;48.760;9.178;2022-07-19T01:11:24;19.10;90.40
37240;DHT22;23130;48.760;9.178;2022-07-19T01:13:50;19.10;90.60
37240;DHT22;23130;48.760;9.178;2022-07-19T01:16:16;19.10;91.00
37240;DHT22;23130;48.760;9.178;2022-07-19T01:18:41;19.00;91.00
37240;DHT22;23130;48.760;9.178;2022-07-19T01:21:08;19.00;90.70
37240;DHT22;23130;48.760;9.178;2022-07-19T01:23:34;18.90;90.40
37240;DHT22;23130;48.760;9.178;2022-07-19T01:26:00;18.90;90.20
37240;DHT22;23130;48.760;9.178;2022-07-19T01:28:25;18.90;90.40
37240;DHT22;23130;48.760;9.178;2022-07-19T01:30:51;18.90;90.60
37240;DHT22;23130;48.760;9.178;2022-07-19T01:33:17;19.00;91.20
37240;DHT22;23130;48.760;9.178;2022-07-19T01:35:42;18.90;91.80
37240;DHT22;23130;48.760;9.178;2022-07-19T01:38:08;19.00;92.00
37240;DHT22;23130;48.760;9.178;2022-07-19T01:40:33;18.90;92.10
37240;DHT22;23130;48.760;9.178;2022-07-19T01:42:59;18.80;92.10
37240;DHT22;23130;48.760;9.178;2022-07-19T01:45:25;18.80;92.30
37240;DHT22;23130;48.760;9.178;2022-07-19T01:47:50;18.80;92.20
37240;DHT22;23130;48.760;9.178;2022-07-19T01:50:17;18.80;92.20
37240;DHT22;23130;48.760;9.178;2022-07-19T01:52:43;18.80;92.00
37240;DHT22;23130;48.760;9.178;2022-07-19T01:55:09;18.90;92.20
37240;DHT22;23130;48.760;9.178;2022-07-19T01:57:34;18.80;92.40
37240;DHT22;23130;48.760;9.178;2022-07-19T02:00:00;18.90;92.00
37240;DHT22;23130;48.760;9.178;2022-07-19T02:02:26;18.90;91.60
37240;DHT22;23130;48.760;9.178;2022-07-19T02:04:51;18.80;91.70
37240;DHT22;23130;48.760;9.178;2022-07-19T02:07:17;18.80;92.10
37240;DHT22;23130;48.760;9.178;2022-07-19T02:09:43;18.70;92.70
37240;DHT22;23130;48.760;9.178;2022-07-19T02:12:09;18.80;92.90
37240;DHT22;23130;48.760;9.178;2022-07-19T02:14:35;18.70;92.80
37240;DHT22;23130;48.760;9.178;2022-07-19T02:17:00;18.70;93.10
37240;DHT22;23130;48.760;9.178;2022-07-19T02:19:28;18.70;93.20
37240;DHT22;23130;48.760;9.178;2022-07-19T02:21:53;18.70;93.10
37240;DHT22;23130;48.760;9.178;2022-07-19T02:24:19;18.80;93.20
37240;DHT22;23130;48.760;9.178;2022-07-19T02:26:45;18.70;93.10
37240;DHT22;23130;48.760;9.178;2022-07-19T02:29:11;18.70;93.20
37240;DHT22;23130;48.760;9.178;2022-07-19T02:31:36;18.50;93.30
37240;DHT22;23130;48.760;9.178;2022-07-19T02:34:02;18.50;93.40
37240;DHT22;23130;48.760;9.178;2022-07-19T02:36:28;18.40;93.70
37240;DHT22;23130;48.760;9.178;2022-07-19T02:38:53;18.40;93.70
37240;DHT22;23130;48.760;9.178;2022-07-19T02:41:19;18.30;93.80
37240;DHT22;23130;48.760;9.178;2022-07-19T02:43:45;18.40;93.70
37240;DHT22;23130;48.760;9.178;2022-07-19T02:46:10;18.40;93.70
37240;DHT22;23130;48.760;9.178;2022-07-19T02:48:36;18.40;93.80
37240;DHT22;23130;48.760;9.178;2022-07-19T02:51:02;18.40;93.70
37240;DHT22;23130;48.760;9.178;2022-07-19T02:53:27;18.40;94.30
37240;DHT22;23130;48.760;9.178;2022-07-19T02:55:53;18.30;94.90
37240;DHT22;23130;48.760;9.178;2022-07-19T02:58:19;18.20;95.50
37240;DHT22;23130;48.760;9.178;2022-07-19T03:00:44;18.10;95.70
37240;DHT22;23130;48.760;9.178;2022-07-19T03:03:10;18.00;96.10
37240;DHT22;23130;48.760;9.178;2022-07-19T03:05:55;18.00;96.20
37240;DHT22;23130;48.760;9.178;2022-07-19T03:08:21;18.20;95.90
37240;DHT22;23130;48.760;9.178;2022-07-19T03:10:47;18.20;95.60
37240;DHT22;23130;48.760;9.178;2022-07-19T03:13:13;18.20;95.60
37240;DHT22;23130;48.760;9.178;2022-07-19T03:15:38;18.30;95.60
37240;DHT22;23130;48.760;9.178;2022-07-19T03:18:04;18.30;95.60
37240;DHT22;23130;48.760;9.178;2022-07-19T03:20:30;18.20;95.60
37240;DHT22;23130;48.760;9.178;2022-07-19T03:22:55;18.30;95.70
37240;DHT22;23130;48.760;9.178;2022-07-19T03:25:21;18.30;95.80
37240;DHT22;23130;48.760;9.178;2022-07-19T03:27:46;18.30;96.10
37240;DHT22;23130;48.760;9.178;2022-07-19T03:30:13;18.10;96.60
37240;DHT22;23130;48.760;9.178;2022-07-19T03:32:39;18.00;96.90
37240;DHT22;23130;48.760;9.178;2022-07-19T03:35:05;18.00;97.00
37240;DHT22;23130;48.760;9.178;2022-07-19T03:37:31;18.00;97.40
37240;DHT22;23130;48.760;9.178;2022-07-19T03:39:56;18.00;97.70
37240;DHT22;23130;48.760;9.178;2022-07-19T03:42:22;18.00;97.60
37240;DHT22;23130;48.760;9.178;2022-07-19T03:44:47;18.00;97.60
37240;DHT22;23130;48.760;9.178;2022-07-19T03:47:13;18.10;98.20
37240;DHT22;23130;48.760;9.178;2022-07-19T03:49:38;18.00;98.40
37240;DHT22;23130;48.760;9.178;2022-07-19T03:52:04;18.00;99.10
37240;DHT22;23130;48.760;9.178;2022-07-19T03:54:29;17.90;99.30
37240;DHT22;23130;48.760;9.178;2022-07-19T03:56:55;17.90;99.40
37240;DHT22;23130;48.760;9.178;2022-07-19T03:59:21;18.00;99.30
37240;DHT22;23130;48.760;9.178;2022-07-19T04:01:50;18.00;98.90
37240;DHT22;23130;48.760;9.178;2022-07-19T04:04:16;18.10;98.80
37240;DHT22;23130;48.760;9.178;2022-07-19T04:06:43;18.10;99.00
37240;DHT22;23130;48.760;9.178;2022-07-19T04:09:08;18.10;99.10
37240;DHT22;23130;48.760;9.178;2022-07-19T04:11:34;18.20;99.20
37240;DHT22;23130;48.760;9.178;2022-07-19T04:13:59;18.20;99.20
37240;DHT22;23130;48.760;9.178;2022-07-19T04:16:25;18.20;98.80
37240;DHT22;23130;48.760;9.178;2022-07-19T04:18:51;18.30;99.10
37240;DHT22;23130;48.760;9.178;2022-07-19T04:21:16;18.30;98.80
37240;DHT22;23130;48.760;9.178;2022-07-19T04:23:42;18.30;98.60
37240;DHT22;23130;48.760;9.178;2022-07-19T04:26:07;18.30;98.60
37240;DHT22;23130;48.760;9.178;2022-07-19T04:28:33;18.40;98.50
37240;DHT22;23130;48.760;9.178;2022-07-19T04:30:58;18.40;98.40
37240;DHT22;23130;48.760;9.178;2022-07-19T04:33:24;18.50;98.30
37240;DHT22;23130;48.760;9.178;2022-07-19T04:35:50;18.50;98.30
37240;DHT22;23130;48.760;9.178;2022-07-19T04:38:17;18.60;98.40
37240;DHT22;23130;48.760;9.178;2022-07-19T04:40:42;19.10;98.50
37240;DHT22;23130;48.760;9.178;2022-07-19T04:43:08;20.20;97.50
37240;DHT22;23130;48.760;9.178;2022-07-19T04:45:34;21.60;94.80
37240;DHT22;23130;48.760;9.178;2022-07-19T04:47:59;22.90;91.80
37240;DHT22;23130;48.760;9.178;2022-07-19T04:50:25;24.10;88.90
37240;DHT22;23130;48.760;9.178;2022-07-19T04:52:50;25.10;84.40
37240;DHT22;23130;48.760;9.178;2022-07-19T04:55:16;25.80;81.20
37240;DHT22;23130;48.760;9.178;2022-07-19T04:57:41;26.80;78.40
37240;DHT22;23130;48.760;9.178;2022-07-19T05:00:09;27.30;75.50
37240;DHT22;23130;48.760;9.178;2022-07-19T05:02:38;27.70;74.40
37240;DHT22;23130;48.760;9.178;2022-07-19T05:05:05;28.20;74.00
37240;DHT22;23130;48.760;9.178;2022-07-19T05:07:31;28.60;72.50
37240;DHT22;23130;48.760;9.178;2022-07-19T05:09:57;29.20;70.30
37240;DHT22;23130;48.760;9.178;2022-07-19T05:12:22;29.60;69.60
37240;DHT22;23130;48.760;9.178;2022-07-19T05:14:48;30.20;68.40
37240;DHT22;23130;48.760;9.178;2022-07-19T05:17:14;30.20;67.90
37240;DHT22;23130;48.760;9.178;2022-07-19T05:19:40;30.40;67.50
37240;DHT22;23130;48.760;9.178;2022-07-19T05:22:06;30.40;67.50
37240;DHT22;23130;48.760;9.178;2022-07-19T05:24:32;31.30;66.60
37240;DHT22;23130;48.760;9.178;2022-07-19T05:26:57;31.70;66.30
37240;DHT22;23130;48.760;9.178;2022-07-19T05:29:23;31.50;67.30
37240;DHT22;23130;48.760;9.178;2022-07-19T05:31:49;31.20;67.40
37240;DHT22;23130;48.760;9.178;2022-07-19T05:34:14;31.30;66.60
37240;DHT22;23130;48.760;9.178;2022-07-19T05:36:41;31.70;64.30
37240;DHT22;23130;48.760;9.178;2022-07-19T05:39:06;32.40;63.60
37240;DHT22;23130;48.760;9.178;2022-07-19T05:41:32;32.40;63.30
37240;DHT22;23130;48.760;9.178;2022-07-19T05:43:58;31.60;65.30
37240;DHT22;23130;48.760;9.178;2022-07-19T05:46:23;31.80;64.70
37240;DHT22;23130;48.760;9.178;2022-07-19T05:48:49;32.10;63.70
37240;DHT22;23130;48.760;9.178;2022-07-19T05:51:15;32.50;63.50
37240;DHT22;23130;48.760;9.178;2022-07-19T05:53:41;32.80;63.10
37240;DHT22;23130;48.760;9.178;2022-07-19T05:56:07;32.80;63.30
37240;DHT22;23130;48.760;9.178;2022-07-19T05:58:33;32.60;63.50
37240;DHT22;23130;48.760;9.178;2022-07-19T06:00:59;32.80;62.60
37240;DHT22;23130;48.760;9.178;2022-07-19T06:03:44;32.90;62.20
37240;DHT22;23130;48.760;9.178;2022-07-19T06:06:10;32.90;62.40
37240;DHT22;23130;48.760;9.178;2022-07-19T06:08:35;32.80;62.30
37240;DHT22;23130;48.760;9.178;2022-07-19T06:11:01;32.90;61.10
37240;DHT22;23130;48.760;9.178;2022-07-19T06:13:27;33.20;61.10
37240;DHT22;23130;48.760;9.178;2022-07-19T06:15:52;33.30;61.30
37240;DHT22;23130;48.760;9.178;2022-07-19T06:18:18;33.50;61.40
37240;DHT22;23130;48.760;9.178;2022-07-19T06:20:44;33.30;61.90
37240;DHT22;23130;48.760;9.178;2022-07-19T06:23:10;33.40;62.50
37240;DHT22;23130;48.760;9.178;2022-07-19T06:25:35;33.50;62.20
37240;DHT22;23130;48.760;9.178;2022-07-19T06:28:02;34.10;60.50
37240;DHT22;23130;48.760;9.178;2022-07-19T06:30:27;34.00;60.80
37240;DHT22;23130;48.760;9.178;2022-07-19T06:32:53;34.20;60.90
37240;DHT22;23130;48.760;9.178;2022-07-19T06:35:19;34.00;61.10
37240;DHT22;23130;48.760;9.178;2022-07-19T06:37:44;33.90;61.20
37240;DHT22;23130;48.760;9.178;2022-07-19T06:40:10;34.40;60.70
37240;DHT22;23130;48.760;9.178;2022-07-19T06:42:36;34.50;60.50
37240;DHT22;23130;48.760;9.178;2022-07-19T06:45:01;34.30;60.70
37240;DHT22;23130;48.760;9.178;2022-07-19T06:47:30;34.40;61.10
37240;DHT22;23130;48.760;9.178;2022-07-19T06:49:58;34.50;60.80
37240;DHT22;23130;48.760;9.178;2022-07-19T06:52:23;34.60;60.30
37240;DHT22;23130;48.760;9.178;2022-07-19T06:54:49;34.60;59.90
37240;DHT22;23130;48.760;9.178;2022-07-19T06:57:14;35.20;59.80
37240;DHT22;23130;48.760;9.178;2022-07-19T06:59:40;35.40;58.60
37240;DHT22;23130;48.760;9.178;2022-07-19T07:02:06;35.40;59.20
37240;DHT22;23130;48.760;9.178;2022-07-19T07:04:31;35.60;58.70
37240;DHT22;23130;48.760;9.178;2022-07-19T07:06:57;36.00;58.10
37240;DHT22;23130;48.760;9.178;2022-07-19T07:09:23;35.60;58.90
37240;DHT22;23130;48.760;9.178;2022-07-19T07:11:48;36.00;58.60
37240;DHT22;23130;48.760;9.178;2022-07-19T07:14:14;36.20;57.70
37240;DHT22;23130;48.760;9.178;2022-07-19T07:16:40;36.10;57.50
37240;DHT22;23130;48.760;9.178;2022-07-19T07:19:05;35.90;55.50
37240;DHT22;23130;48.760;9.178;2022-07-19T07:21:31;35.60;55.80
37240;DHT22;23130;48.760;9.178;2022-07-19T07:24:00;35.30;58.10
37240;DHT22;23130;48.760;9.178;2022-07-19T07:26:27;36.10;56.40
37240;DHT22;23130;48.760;9.178;2022-07-19T07:28:52;36.00;57.60
37240;DHT22;23130;48.760;9.178;2022-07-19T07:31:18;35.60;56.50
37240;DHT22;23130;48.760;9.178;2022-07-19T07:33:43;35.80;55.30
37240;DHT22;23130;48.760;9.178;2022-07-19T07:36:09;36.00;54.10
37240;DHT22;23130;48.760;9.178;2022-07-19T07:38:34;35.80;54.60
37240;DHT22;23130;48.760;9.178;2022-07-19T07:41:00;35.60;56.50
37240;DHT22;23130;48.760;9.178;2022-07-19T07:43:26;35.60;55.20
37240;DHT22;23130;48.760;9.178;2022-07-19T07:45:51;35.60;53.40
37240;DHT22;23130;48.760;9.178;2022-07-19T07:48:17;35.70;54.60
37240;DHT22;23130;48.760;9.178;2022-07-19T07:50:42;35.90;55.20
37240;DHT22;23130;48.760;9.178;2022-07-19T07:53:08;35.70;57.00
37240;DHT22;23130;48.760;9.178;2022-07-19T07:55:33;35.70;53.60
37240;DHT22;23130;48.760;9.178;2022-07-19T07:58:04;36.20;52.70
37240;DHT22;23130;48.760;9.178;2022-07-19T08:00:30;35.60;53.20
37240;DHT22;23130;48.760;9.178;2022-07-19T08:02:55;35.40;53.50
37240;DHT22;23130;48.760;9.178;2022-07-19T08:05:21;35.60;53.10
37240;DHT22;23130;48.760;9.178;2022-07-19T08:07:47;36.10;51.90
37240;DHT22;23130;48.760;9.178;2022-07-19T08:10:13;35.60;51.90
37240;DHT22;23130;48.760;9.178;2022-07-19T08:12:38;35.30;53.20
37240;DHT22;23130;48.760;9.178;2022-07-19T08:15:05;35.10;53.10
37240;DHT22;23130;48.760;9.178;2022-07-19T08:17:31;35.30;53.50
37240;DHT22;23130;48.760;9.178;2022-07-19T08:19:56;35.20;53.10
37240;DHT22;23130;48.760;9.178;2022-07-19T08:22:22;35.30;53.40
37240;DHT22;23130;48.760;9.178;2022-07-19T08:24:47;35.30;53.70
37240;DHT22;23130;48.760;9.178;2022-07-19T08:27:13;35.30;53.00
37240;DHT22;23130;48.760;9.178;2022-07-19T08:29:38;35.00;52.60
37240;DHT22;23130;48.760;9.178;2022-07-19T08:32:05;34.80;53.60
37240;DHT22;23130;48.760;9.178;2022-07-19T08:34:30;34.60;50.80
37240;DHT22;23130;48.760;9.178;2022-07-19T08:36:56;34.00;53.40
37240;DHT22;23130;48.760;9.178;2022-07-19T08:39:22;33.60;55.10
37240;DHT22;23130;48.760;9.178;2022-07-19T08:41:47;33.30;55.90
37240;DHT22;23130;48.760;9.178;2022-07-19T08:44:13;32.80;55.10
37240;DHT22;23130;48.760;9.178;2022-07-19T08:46:40;32.40;55.60
37240;DHT22;23130;48.760;9.178;2022-07-19T08:49:05;32.10;56.40
37240;DHT22;23130;48.760;9.178;2022-07-19T08:51:32;32.00;56.10
37240;DHT22;23130;48.760;9.178;2022-07-19T08:53:58;31.90;56.70
37240;DHT22;23130;48.760;9.178;2022-07-19T08:56:23;31.60;56.20
37240;DHT22;23130;48.760;9.178;2022-07-19T08:59:08;31.30;57.10
37240;DHT22;23130;48.760;9.178;2022-07-19T09:01:34;31.20;57.60
37240;DHT22;23130;48.760;9.178;2022-07-19T09:06:43;31.30;58.80
37240;DHT22;23130;48.760;9.178;2022-07-19T09:09:10;31.20;58.20
37240;DHT22;23130;48.760;9.178;2022-07-19T09:11:38;31.20;58.10
37240;DHT22;23130;48.760;9.178;2022-07-19T09:14:08;31.10;57.60
37240;DHT22;23130;48.760;9.178;2022-07-19T09:16:55;31.20;59.80
37240;DHT22;23130;48.760;9.178;2022-07-19T09:19:22;31.20;57.10
37240;DHT22;23130;48.760;9.178;2022-07-19T09:24:25;31.20;57.10
37240;DHT22;23130;48.760;9.178;2022-07-19T09:27:32;31.20;57.30
37240;DHT22;23130;48.760;9.178;2022-07-19T09:29:55;31.40;57.70
37240;DHT22;23130;48.760;9.178;2022-07-19T09:32:24;31.40;56.40
37240;DHT22;23130;48.760;9.178;2022-07-19T09:34:58;31.50;57.00
37240;DHT22;23130;48.760;9.178;2022-07-19T09:37:25;31.60;56.40
37240;DHT22;23130;48.760;9.178;2022-07-19T09:39:55;31.70;56.70
37240;DHT22;23130;48.760;9.178;2022-07-19T09:45:05;31.70;55.70
37240;DHT22;23130;48.760;9.178;2022-07-19T09:47:36;31.80;55.50
37240;DHT22;23130;48.760;9.178;2022-07-19T09:50:06;31.70;54.40
37240;DHT22;23130;48.760;9.178;2022-07-19T09:52:33;31.60;54.10
37240;DHT22;23130;48.760;9.178;2022-07-19T09:55:04;31.80;54.30
37240;DHT22;23130;48.760;9.178;2022-07-19T09:57:43;31.90;54.10
37240;DHT22;23130;48.760;9.178;2022-07-19T10:00:11;31.90;53.90
37240;DHT22;23130;48.760;9.178;2022-07-19T10:02:40;31.90;53.80
37240;DHT22;23130;48.760;9.178;2022-07-19T10:05:08;32.00;53.70
37240;DHT22;23130;48.760;9.178;2022-07-19T10:07:36;32.10;54.10
37240;DHT22;23130;48.760;9.178;2022-07-19T10:10:07;32.20;54.40
37240;DHT22;23130;48.760;9.178;2022-07-19T10:12:33;32.10;54.10
37240;DHT22;23130;48.760;9.178;2022-07-19T10:14:58;32.10;54.30
37240;DHT22;23130;48.760;9.178;2022-07-19T10:20:09;32.10;53.40
37240;DHT22;23130;48.760;9.178;2022-07-19T10:22:39;32.00;53.00
37240;DHT22;23130;48.760;9.178;2022-07-19T10:25:12;31.80;53.30
37240;DHT22;23130;48.760;9.178;2022-07-19T10:27:41;31.90;53.00
37240;DHT22;23130;48.760;9.178;2022-07-19T10:32:36;32.10;52.90
37240;DHT22;23130;48.760;9.178;2022-07-19T10:40:47;32.20;52.50
37240;DHT22;23130;48.760;9.178;2022-07-19T10:43:20;32.20;52.70
37240;DHT22;23130;48.760;9.178;2022-07-19T10:48:49;32.40;52.50
37240;DHT22;23130;48.760;9.178;2022-07-19T10:51:30;32.50;52.90
37240;DHT22;23130;48.760;9.178;2022-07-19T10:56:56;32.50;52.70
37240;DHT22;23130;48.760;9.178;2022-07-19T10:59:34;32.70;52.20
37240;DHT22;23130;48.760;9.178;2022-07-19T11:02:00;32.70;52.50
37240;DHT22;23130;48.760;9.178;2022-07-19T11:04:34;32.70;52.00
37240;DHT22;23130;48.760;9.178;2022-07-19T11:07:13;32.60;53.10
37240;DHT22;23130;48.760;9.178;2022-07-19T11:10:01;32.50;53.30
37240;DHT22;23130;48.760;9.178;2022-07-19T11:12:34;32.60;51.80
37240;DHT22;23130;48.760;9.178;2022-07-19T11:15:03;32.70;52.90
37240;DHT22;23130;48.760;9.178;2022-07-19T11:17:29;32.70;52.00
37240;DHT22;23130;48.760;9.178;2022-07-19T11:20:07;32.50;53.20
37240;DHT22;23130;48.760;9.178;2022-07-19T11:22:40;32.50;52.80
37240;DHT22;23130;48.760;9.178;2022-07-19T11:25:07;32.70;52.90
37240;DHT22;23130;48.760;9.178;2022-07-19T11:27:33;32.90;53.70
37240;DHT22;23130;48.760;9.178;2022-07-19T11:30:02;33.00;52.90
37240;DHT22;23130;48.760;9.178;2022-07-19T11:32:30;32.90;52.50
37240;DHT22;23130;48.760;9.178;2022-07-19T11:35:06;33.00;52.20
37240;DHT22;23130;48.760;9.178;2022-07-19T11:37:34;33.10;52.90
37240;DHT22;23130;48.760;9.178;2022-07-19T11:40:01;33.10;51.80
37240;DHT22;23130;48.760;9.178;2022-07-19T11:42:31;33.10;52.20
37240;DHT22;23130;48.760;9.178;2022-07-19T11:44:57;33.10;52.20
37240;DHT22;23130;48.760;9.178;2022-07-19T11:47:23;33.30;51.70
37240;DHT22;23130;48.760;9.178;2022-07-19T11:49:49;33.40;52.50
37240;DHT22;23130;48.760;9.178;2022-07-19T11:52:14;33.40;51.20
37240;DHT22;23130;48.760;9.178;2022-07-19T11:54:40;33.30;52.70
37240;DHT22;23130;48.760;9.178;2022-07-19T11:57:22;33.30;51.50
37240;DHT22;23130;48.760;9.178;2022-07-19T11:59:49;33.40;52.00
37240;DHT22;23130;48.760;9.178;2022-07-19T12:02:14;33.50;52.10
37240;DHT22;23130;48.760;9.178;2022-07-19T12:04:40;33.70;51.70
37240;DHT22;23130;48.760;9.178;2022-07-19T12:07:06;33.70;51.50
37240;DHT22;23130;48.760;9.178;2022-07-19T12:09:31;33.60;51.20
37240;DHT22;23130;48.760;9.178;2022-07-19T12:11:59;33.30;51.30
37240;DHT22;23130;48.760;9.178;2022-07-19T12:14:32;33.20;51.90
37240;DHT22;23130;48.760;9.178;2022-07-19T12:17:20;33.20;52.20
37240;DHT22;23130;48.760;9.178;2022-07-19T12:19:51;33.20;51.90
37240;DHT22;23130;48.760;9.178;2022-07-19T12:22:36;33.20;51.90
37240;DHT22;23130;48.760;9.178;2022-07-19T12:25:04;33.50;52.60
37240;DHT22;23130;48.760;9.178;2022-07-19T12:27:31;33.30;51.90
37240;DHT22;23130;48.760;9.178;2022-07-19T12:29:58;33.30;51.90
37240;DHT22;23130;48.760;9.178;2022-07-19T12:32:32;33.20;51.60
37240;DHT22;23130;48.760;9.178;2022-07-19T12:35:02;33.40;52.50
37240;DHT22;23130;48.760;9.178;2022-07-19T12:37:32;33.50;52.20
37240;DHT22;23130;48.760;9.178;2022-07-19T12:45:22;33.30;52.40
37240;DHT22;23130;48.760;9.178;2022-07-19T12:47:49;33.30;52.90
37240;DHT22;23130;48.760;9.178;2022-07-19T12:52:52;33.50;53.00
37240;DHT22;23130;48.760;9.178;2022-07-19T12:55:20;33.60;52.10
37240;DHT22;23130;48.760;9.178;2022-07-19T12:57:47;33.50;53.20
37240;DHT22;23130;48.760;9.178;2022-07-19T13:00:14;33.60;52.40
37240;DHT22;23130;48.760;9.178;2022-07-19T13:02:40;33.80;52.60
37240;DHT22;23130;48.760;9.178;2022-07-19T13:05:06;33.80;52.40
37240;DHT22;23130;48.760;9.178;2022-07-19T13:07:31;33.60;52.80
37240;DHT22;23130;48.760;9.178;2022-07-19T13:09:57;33.50;53.10
37240;DHT22;23130;48.760;9.178;2022-07-19T13:12:23;33.60;52.60
37240;DHT22;23130;48.760;9.178;2022-07-19T13:14:48;33.50;52.70
37240;DHT22;23130;48.760;9.178;2022-07-19T13:17:14;33.50;53.20
37240;DHT22;23130;48.760;9.178;2022-07-19T13:19:40;33.70;53.90
37240;DHT22;23130;48.760;9.178;2022-07-19T13:22:06;33.70;52.20
37240;DHT22;23130;48.760;9.178;2022-07-19T13:24:32;33.70;52.20
37240;DHT22;23130;48.760;9.178;2022-07-19T13:26:58;33.60;52.60
37240;DHT22;23130;48.760;9.178;2022-07-19T13:29:23;33.60;52.90
37240;DHT22;23130;48.760;9.178;2022-07-19T13:31:49;33.60;52.00
37240;DHT22;23130;48.760;9.178;2022-07-19T13:34:15;33.60;52.10
37240;DHT22;23130;48.760;9.178;2022-07-19T13:36:41;33.60;51.90
37240;DHT22;23130;48.760;9.178;2022-07-19T13:39:08;33.70;51.60
37240;DHT22;23130;48.760;9.178;2022-07-19T13:41:38;33.70;51.90
37240;DHT22;23130;48.760;9.178;2022-07-19T13:44:04;33.70;51.90
37240;DHT22;23130;48.760;9.178;2022-07-19T13:46:30;33.70;51.10
37240;DHT22;23130;48.760;9.178;2022-07-19T13:48:56;33.70;51.20
37240;DHT22;23130;48.760;9.178;2022-07-19T13:51:22;33.70;51.60
37240;DHT22;23130;48.760;9.178;2022-07-19T13:53:50;33.90;51.40
37240;DHT22;23130;48.760;9.178;2022-07-19T13:56:17;33.90;51.30
37240;DHT22;23130;48.760;9.178;2022-07-19T13:58:43;34.00;51.10
37240;DHT22;23130;48.760;9.178;2022-07-19T14:01:10;34.10;52.10
37240;DHT22;23130;48.760;9.178;2022-07-19T14:03:36;34.00;51.00
37240;DHT22;23130;48.760;9.178;2022-07-19T14:06:02;33.90;50.70
37240;DHT22;23130;48.760;9.178;2022-07-19T14:08:27;33.80;51.30
37240;DHT22;23130;48.760;9.178;2022-07-19T14:10:53;33.90;51.60
37240;DHT22;23130;48.760;9.178;2022-07-19T14:13:18;34.10;51.00
37240;DHT22;23130;48.760;9.178;2022-07-19T14:15:44;34.20;50.90
37240;DHT22;23130;48.760;9.178;2022-07-19T14:18:10;34.20;50.70
37240;DHT22;23130;48.760;9.178;2022-07-19T14:20:38;34.20;50.40
37240;DHT22;23130;48.760;9.178;2022-07-19T14:23:04;34.30;50.60
37240;DHT22;23130;48.760;9.178;2022-07-19T14:25:29;34.50;50.80
37240;DHT22;23130;48.760;9.178;2022-07-19T14:27:55;34.50;50.10
37240;DHT22;23130;48.760;9.178;2022-07-19T14:30:21;34.50;49.50
37240;DHT22;23130;48.760;9.178;2022-07-19T14:32:46;34.40;49.60
37240;DHT22;23130;48.760;9.178;2022-07-19T14:35:12;34.40;50.00
37240;DHT22;23130;48.760;9.178;2022-07-19T14:37:37;34.30;49.40
37240;DHT22;23130;48.760;9.178;2022-07-19T14:40:03;34.30;49.40
37240;DHT22;23130;48.760;9.178;2022-07-19T14:42:29;34.20;50.00
37240;DHT22;23130;48.760;9.178;2022-07-19T14:44:56;34.30;49.30
37240;DHT22;23130;48.760;9.178;2022-07-19T14:47:22;34.30;49.80
37240;DHT22;23130;48.760;9.178;2022-07-19T14:49:47;34.40;49.60
37240;DHT22;23130;48.760;9.178;2022-07-19T14:52:13;34.40;50.10
37240;DHT22;23130;48.760;9.178;2022-07-19T14:54:39;34.50;49.60
37240;DHT22;23130;48.760;9.178;2022-07-19T14:57:04;34.40;49.40
37240;DHT22;23130;48.760;9.178;2022-07-19T14:59:30;34.40;50.50
37240;DHT22;23130;48.760;9.178;2022-07-19T15:01:55;34.40;49.90
37240;DHT22;23130;48.760;9.178;2022-07-19T15:04:21;34.40;49.50
37240;DHT22;23130;48.760;9.178;2022-07-19T15:06:47;34.50;50.30
37240;DHT22;23130;48.760;9.178;2022-07-19T15:09:13;34.60;49.30
37240;DHT22;23130;48.760;9.178;2022-07-19T15:11:39;34.60;48.90
37240;DHT22;23130;48.760;9.178;2022-07-19T15:14:05;34.50;49.40
37240;DHT22;23130;48.760;9.178;2022-07-19T15:16:31;34.50;48.80
37240;DHT22;23130;48.760;9.178;2022-07-19T15:18:56;34.60;49.10
37240;DHT22;23130;48.760;9.178;2022-07-19T15:21:22;34.70;49.80
37240;DHT22;23130;48.760;9.178;2022-07-19T15:23:48;34.60;48.90
37240;DHT22;23130;48.760;9.178;2022-07-19T15:26:14;34.60;49.60
37240;DHT22;23130;48.760;9.178;2022-07-19T15:28:39;34.60;49.80
37240;DHT22;23130;48.760;9.178;2022-07-19T15:31:05;34.70;49.10
37240;DHT22;23130;48.760;9.178;2022-07-19T15:33:31;34.70;49.10
37240;DHT22;23130;48.760;9.178;2022-07-19T15:35:58;34.80;49.20
37240;DHT22;23130;48.760;9.178;2022-07-19T15:38:24;34.70;49.20
37240;DHT22;23130;48.760;9.178;2022-07-19T15:40:50;34.70;48.90
37240;DHT22;23130;48.760;9.178;2022-07-19T15:43:16;34.60;49.10
37240;DHT22;23130;48.760;9.178;2022-07-19T15:45:42;34.60;49.50
37240;DHT22;23130;48.760;9.178;2022-07-19T15:48:08;34.60;49.70
37240;DHT22;23130;48.760;9.178;2022-07-19T15:50:34;34.60;49.10
37240;DHT22;23130;48.760;9.178;2022-07-19T15:53:03;34.60;49.50
37240;DHT22;23130;48.760;9.178;2022-07-19T15:55:29;34.60;49.00
37240;DHT22;23130;48.760;9.178;2022-07-19T15:57:54;34.70;49.40
37240;DHT22;23130;48.760;9.178;2022-07-19T16:00:20;34.70;48.70